Time;durP1;ratioP1;P1;durP2;ratioP2;P2;SDS_P1;SDS_P2;PMS_P1;PMS_P2;Temp;Humidity;BMP_temperature;BMP_pressure;BME280_temperature;BME280_humidity;BME280_pressure;Samples;Min_cycle;Max_cycle;Signal;HPM_P1;HPM_P2
2023/09/07 00:01:55;;;;;;;12.70;5.93;;;20.10;99.90;;;;;;7284887;19;20202;-86
2023/09/07 00:04:22;;;;;;;11.57;6.43;;;20.00;99.90;;;;;;7291769;19;20280;-86
2023/09/07 00:06:49;;;;;;;13.67;6.30;;;20.00;99.90;;;;;;7292968;19;20201;-86
2023/09/07 00:09:18;;;;;;;12.93;6.10;;;20.00;99.90;;;;;;7291429;19;20201;-86
2023/09/07 00:11:45;;;;;;;12.77;6.77;;;19.90;99.90;;;;;;7292637;19;20219;-89
2023/09/07 00:14:13;;;;;;;11.23;6.57;;;20.00;99.90;;;;;;7295232;19;20201;-85
2023/09/07 00:16:39;;;;;;;12.00;6.13;;;19.90;99.90;;;;;;7292001;19;20198;-86
2023/09/07 00:19:05;;;;;;;12.50;6.57;;;20.00;99.90;;;;;;7293146;19;20665;-89
2023/09/07 00:21:31;;;;;;;14.23;6.67;;;20.00;99.90;;;;;;7298536;19;20288;-89
2023/09/07 00:23:57;;;;;;;10.87;6.30;;;20.00;99.90;;;;;;7301789;19;20200;-86
2023/09/07 00:26:23;;;;;;;11.03;6.10;;;20.00;99.90;;;;;;7292036;19;20206;-86
2023/09/07 00:28:49;;;;;;;11.70;6.60;;;20.00;99.90;;;;;;7289778;19;20645;-86
2023/09/07 00:31:15;;;;;;;11.43;6.40;;;20.00;99.90;;;;;;7291391;19;20192;-86
2023/09/07 00:33:41;;;;;;;11.70;6.23;;;20.00;99.90;;;;;;7290927;19;20199;-85
2023/09/07 00:36:07;;;;;;;11.87;6.00;;;20.00;99.90;;;;;;7289441;19;20705;-86
2023/09/07 00:38:33;;;;;;;14.93;6.43;;;20.00;99.90;;;;;;7292016;19;20215;-88
2023/09/07 00:40:58;;;;;;;12.40;6.87;;;20.00;99.90;;;;;;7311390;19;20736;-85
2023/09/07 00:43:24;;;;;;;12.63;6.27;;;20.00;99.90;;;;;;7289440;19;20202;-86
2023/09/07 00:45:50;;;;;;;11.00;6.40;;;20.00;99.90;;;;;;7292809;19;20718;-85
2023/09/07 00:48:16;;;;;;;10.30;6.33;;;19.90;99.90;;;;;;7288944;19;20219;-87
2023/09/07 00:50:43;;;;;;;12.73;6.20;;;19.90;99.90;;;;;;7288776;19;20276;-86
2023/09/07 00:53:10;;;;;;;12.23;6.43;;;19.70;99.90;;;;;;7291890;19;20213;-88
2023/09/07 00:55:44;;;;;;;11.40;5.93;;;19.70;99.90;;;;;;7291996;19;21016;-89
2023/09/07 00:58:11;;;;;;;11.37;6.27;;;19.80;99.90;;;;;;7292053;19;20199;-89
2023/09/07 01:00:37;;;;;;;9.87;6.27;;;19.90;99.90;;;;;;7291520;19;20302;-89
2023/09/07 01:03:04;;;;;;;11.13;6.17;;;19.90;99.90;;;;;;7291133;19;20196;-89
2023/09/07 01:05:46;;;;;;;10.83;6.00;;;19.90;99.90;;;;;;7310242;19;21013;-87
2023/09/07 01:08:37;;;;;;;13.70;6.77;;;19.80;99.90;;;;;;7292482;19;20195;-88
2023/09/07 01:11:16;;;;;;;11.13;6.60;;;19.70;99.90;;;;;;7272721;19;20228;-88
2023/09/07 01:13:42;;;;;;;11.13;6.47;;;19.70;99.90;;;;;;7290494;19;20206;-88
2023/09/07 01:16:11;;;;;;;11.63;5.90;;;19.70;99.90;;;;;;7288277;19;20892;-85
2023/09/07 01:18:39;;;;;;;11.43;5.80;;;19.70;99.90;;;;;;7289991;19;20192;-85
2023/09/07 01:21:08;;;;;;;11.67;6.30;;;19.60;99.90;;;;;;7288573;19;20179;-86
2023/09/07 01:23:37;;;;;;;13.63;6.37;;;19.60;99.90;;;;;;7288183;19;20216;-88
2023/09/07 01:26:06;;;;;;;10.43;5.77;;;19.50;99.90;;;;;;7287980;19;20183;-89
2023/09/07 01:28:32;;;;;;;11.40;5.77;;;19.50;99.90;;;;;;7288712;19;20277;-86
2023/09/07 01:30:59;;;;;;;12.73;5.70;;;19.50;99.90;;;;;;7306751;19;20186;-85
2023/09/07 01:33:27;;;;;;;10.33;5.93;;;19.50;99.90;;;;;;7288574;19;20181;-86
2023/09/07 01:35:53;;;;;;;14.30;6.73;;;19.40;99.90;;;;;;7287077;19;20210;-85
2023/09/07 01:38:19;;;;;;;11.03;6.00;;;19.40;99.90;;;;;;7288501;19;20192;-86
2023/09/07 01:40:45;;;;;;;11.10;6.30;;;19.40;99.90;;;;;;7287737;19;20208;-86
2023/09/07 01:43:11;;;;;;;11.57;6.47;;;19.40;99.90;;;;;;7288521;19;20183;-87
2023/09/07 01:45:37;;;;;;;11.40;6.10;;;19.30;99.90;;;;;;7288270;19;20195;-86
2023/09/07 01:48:03;;;;;;;13.53;6.60;;;19.30;99.90;;;;;;7290554;19;20201;-89
2023/09/07 01:50:31;;;;;;;12.00;6.03;;;19.30;99.90;;;;;;7295891;19;20175;-89
2023/09/07 01:52:57;;;;;;;11.00;6.73;;;19.20;99.90;;;;;;7313801;19;20188;-89
2023/09/07 01:55:23;;;;;;;11.43;6.20;;;19.10;99.90;;;;;;7290687;19;20197;-89
2023/09/07 01:57:49;;;;;;;11.50;6.10;;;19.10;99.90;;;;;;7291744;19;20190;-89
2023/09/07 02:00:15;;;;;;;11.87;6.20;;;18.90;99.90;;;;;;7289152;19;20193;-90
2023/09/07 02:02:41;;;;;;;10.93;5.90;;;18.80;99.90;;;;;;7286579;19;20209;-89
2023/09/07 02:05:10;;;;;;;11.53;6.13;;;18.60;99.90;;;;;;7286333;19;20256;-86
2023/09/07 02:07:35;;;;;;;10.97;5.73;;;18.60;99.90;;;;;;7288539;19;20722;-86
2023/09/07 02:10:03;;;;;;;11.70;5.63;;;18.50;99.90;;;;;;7292279;19;20192;-86
2023/09/07 02:12:29;;;;;;;12.30;6.67;;;18.50;99.90;;;;;;7309198;19;20620;-86
2023/09/07 02:14:56;;;;;;;12.00;5.90;;;18.60;99.90;;;;;;7287869;19;20205;-86
2023/09/07 02:17:22;;;;;;;13.10;6.40;;;18.50;99.90;;;;;;7286037;19;20211;-86
2023/09/07 02:19:48;;;;;;;11.23;6.60;;;18.40;99.90;;;;;;7286616;19;20214;-86
2023/09/07 02:22:13;;;;;;;14.23;7.67;;;18.40;99.90;;;;;;7286003;19;20198;-87
2023/09/07 02:24:39;;;;;;;12.80;6.97;;;18.50;99.90;;;;;;7284844;19;20192;-90
2023/09/07 02:27:05;;;;;;;13.90;6.70;;;18.60;99.90;;;;;;7286220;19;20280;-86
2023/09/07 02:29:32;;;;;;;12.50;6.60;;;18.60;99.90;;;;;;7285143;19;20189;-86
2023/09/07 02:31:58;;;;;;;12.60;6.67;;;18.60;99.90;;;;;;7308499;19;20250;-87
2023/09/07 02:34:24;;;;;;;12.07;6.60;;;18.50;99.90;;;;;;7285148;19;20192;-86
2023/09/07 02:36:50;;;;;;;11.60;6.33;;;18.50;99.90;;;;;;7283215;19;20300;-86
2023/09/07 02:39:18;;;;;;;11.73;6.63;;;18.50;99.90;;;;;;7285756;19;20220;-86
2023/09/07 02:41:45;;;;;;;11.63;6.60;;;18.40;99.90;;;;;;7285546;19;20192;-87
2023/09/07 02:44:12;;;;;;;11.80;6.57;;;18.40;99.90;;;;;;7286720;19;20209;-86
2023/09/07 02:46:38;;;;;;;12.07;6.77;;;18.40;99.90;;;;;;7286992;19;20188;-85
2023/09/07 02:49:06;;;;;;;11.03;6.00;;;18.30;99.90;;;;;;7280916;19;20555;-89
2023/09/07 02:51:32;;;;;;;11.63;6.27;;;18.40;99.90;;;;;;7292315;19;20300;-89
2023/09/07 02:53:58;;;;;;;13.30;6.80;;;18.30;99.90;;;;;;7310644;19;20222;-88
2023/09/07 02:56:25;;;;;;;12.83;6.93;;;18.40;99.90;;;;;;7286824;19;20181;-89
2023/09/07 02:58:50;;;;;;;12.53;6.43;;;18.30;99.90;;;;;;7289106;19;20560;-89
2023/09/07 03:01:20;;;;;;;10.20;6.60;;;18.20;99.90;;;;;;7289232;19;20192;-89
2023/09/07 03:03:46;;;;;;;10.97;6.40;;;18.20;99.90;;;;;;7288397;19;20647;-89
2023/09/07 03:06:16;;;;;;;12.27;7.00;;;18.10;99.90;;;;;;7290152;19;20200;-90
2023/09/07 03:08:44;;;;;;;11.03;6.60;;;18.10;99.90;;;;;;7289291;19;20189;-86
2023/09/07 03:11:11;;;;;;;11.00;6.43;;;18.20;99.90;;;;;;7284835;19;20193;-86
2023/09/07 03:13:38;;;;;;;14.97;6.17;;;18.20;99.90;;;;;;7285179;19;20209;-86
2023/09/07 03:16:04;;;;;;;9.90;5.93;;;18.20;99.90;;;;;;7282648;19;20309;-85
2023/09/07 03:18:31;;;;;;;11.97;6.43;;;18.10;99.90;;;;;;7300571;19;20576;-86
2023/09/07 03:21:00;;;;;;;12.47;6.37;;;18.00;99.90;;;;;;7308077;19;21196;-86
2023/09/07 03:23:30;;;;;;;10.03;6.07;;;18.00;99.90;;;;;;7284772;19;20194;-86
2023/09/07 03:25:57;;;;;;;10.50;5.77;;;17.90;99.90;;;;;;7288075;19;20185;-89
2023/09/07 03:28:25;;;;;;;13.07;6.53;;;17.70;99.90;;;;;;7288457;19;20188;-89
2023/09/07 03:30:53;;;;;;;9.60;5.73;;;17.60;99.90;;;;;;7284164;19;20182;-88
2023/09/07 03:33:19;;;;;;;10.53;6.27;;;17.50;99.90;;;;;;7287216;19;20651;-88
2023/09/07 03:35:45;;;;;;;10.53;6.10;;;17.50;99.90;;;;;;7285804;19;20208;-89
2023/09/07 03:38:14;;;;;;;11.40;6.43;;;17.60;99.90;;;;;;7292769;19;20635;-87
2023/09/07 03:40:40;;;;;;;11.70;6.20;;;17.50;99.90;;;;;;7293033;19;20199;-89
2023/09/07 03:43:06;;;;;;;12.13;7.00;;;17.60;99.90;;;;;;7293808;19;20188;-87
2023/09/07 03:45:33;;;;;;;14.13;6.73;;;17.70;99.90;;;;;;7292830;19;20221;-89
2023/09/07 03:48:00;;;;;;;11.43;6.43;;;17.70;99.90;;;;;;7317520;19;20647;-88
2023/09/07 03:50:26;;;;;;;12.77;6.90;;;17.80;99.90;;;;;;7293366;19;20181;-90
2023/09/07 03:52:53;;;;;;;11.93;6.80;;;17.80;99.90;;;;;;7295349;19;20204;-89
2023/09/07 03:55:19;;;;;;;14.73;7.30;;;17.90;99.90;;;;;;7294378;19;20186;-89
2023/09/07 03:57:45;;;;;;;14.17;6.93;;;18.00;99.90;;;;;;7292923;19;20193;-89
2023/09/07 04:00:11;;;;;;;11.83;7.13;;;18.10;99.90;;;;;;7292445;19;20192;-86
2023/09/07 04:02:43;;;;;;;11.30;6.77;;;18.10;99.90;;;;;;7289541;19;20979;-86
2023/09/07 04:05:10;;;;;;;11.57;6.80;;;18.20;99.90;;;;;;7290787;19;20234;-86
2023/09/07 04:07:37;;;;;;;10.70;6.73;;;18.20;99.90;;;;;;7290856;19;20189;-89
2023/09/07 04:10:04;;;;;;;12.20;7.17;;;18.20;99.90;;;;;;7292077;19;20185;-88
2023/09/07 04:12:31;;;;;;;11.63;6.90;;;18.20;99.90;;;;;;7311589;19;20225;-90
2023/09/07 04:14:57;;;;;;;11.07;6.73;;;18.10;99.90;;;;;;7309079;19;20195;-85
2023/09/07 04:17:23;;;;;;;11.60;7.33;;;18.10;99.90;;;;;;7290526;19;20200;-85
2023/09/07 04:19:48;;;;;;;12.93;7.20;;;18.10;99.90;;;;;;7290433;19;20193;-86
2023/09/07 04:22:14;;;;;;;12.33;6.30;;;18.00;99.90;;;;;;7291982;19;20272;-85
2023/09/07 04:24:40;;;;;;;12.20;6.67;;;17.90;99.90;;;;;;7292242;19;20184;-86
2023/09/07 04:27:11;;;;;;;12.40;6.10;;;17.80;99.90;;;;;;7290936;19;20189;-87
2023/09/07 04:29:36;;;;;;;11.90;7.03;;;17.70;99.90;;;;;;7291437;19;20191;-86
2023/09/07 04:32:02;;;;;;;13.40;6.90;;;17.80;99.90;;;;;;7304928;19;20840;-85
2023/09/07 04:34:29;;;;;;;15.47;7.67;;;17.80;99.90;;;;;;7328007;19;20183;-84
2023/09/07 04:36:54;;;;;;;14.47;7.03;;;17.80;99.90;;;;;;7309509;19;20192;-89
2023/09/07 04:39:20;;;;;;;15.53;7.30;;;17.90;99.90;;;;;;7307808;19;20190;-86
2023/09/07 04:41:46;;;;;;;13.40;7.67;;;17.90;99.90;;;;;;7304485;19;20178;-86
2023/09/07 04:44:16;;;;;;;11.27;7.17;;;17.90;99.90;;;;;;7291484;19;20188;-84
2023/09/07 04:46:42;;;;;;;13.23;7.60;;;17.90;99.90;;;;;;7288919;19;20208;-85
2023/09/07 04:49:12;;;;;;;11.03;6.90;;;17.90;99.90;;;;;;7287337;19;20188;-86
2023/09/07 04:51:38;;;;;;;13.40;7.03;;;17.80;99.90;;;;;;7286877;19;20202;-86
2023/09/07 04:54:04;;;;;;;13.53;7.10;;;17.70;99.90;;;;;;7289569;19;20177;-86
2023/09/07 04:56:33;;;;;;;14.70;7.67;;;17.60;99.90;;;;;;7307267;19;20189;-86
2023/09/07 04:58:59;;;;;;;13.03;7.23;;;17.60;99.90;;;;;;7287830;19;20205;-87
2023/09/07 05:01:25;;;;;;;13.93;7.43;;;17.70;99.90;;;;;;7300720;19;20184;-89
2023/09/07 05:03:54;;;;;;;15.07;7.63;;;17.80;99.90;;;;;;7289497;19;20658;-87
2023/09/07 05:06:21;;;;;;;11.87;7.33;;;17.80;99.90;;;;;;7288519;19;20185;-88
2023/09/07 05:08:50;;;;;;;12.87;7.20;;;17.80;99.90;;;;;;7288172;19;20695;-87
2023/09/07 05:11:17;;;;;;;13.80;7.30;;;17.70;99.90;;;;;;7288327;19;20501;-85
2023/09/07 05:13:43;;;;;;;12.40;7.23;;;17.60;99.90;;;;;;7287140;19;20272;-86
2023/09/07 05:16:09;;;;;;;12.23;7.37;;;17.60;99.90;;;;;;7286886;19;20189;-85
2023/09/07 05:18:36;;;;;;;14.33;7.27;;;17.50;99.90;;;;;;7288606;19;20184;-84
2023/09/07 05:21:12;;;;;;;12.33;7.10;;;17.60;99.90;;;;;;7286323;19;20181;-84
2023/09/07 05:23:37;;;;;;;13.53;7.23;;;17.60;99.90;;;;;;7287351;19;20188;-84
2023/09/07 05:26:03;;;;;;;15.07;7.17;;;17.60;99.90;;;;;;7285990;19;20211;-84
2023/09/07 05:28:30;;;;;;;13.73;6.50;;;17.70;99.90;;;;;;7306595;19;20223;-84
2023/09/07 05:30:57;;;;;;;11.23;6.87;;;17.60;99.90;;;;;;7304977;19;20583;-84
2023/09/07 05:33:24;;;;;;;12.23;6.87;;;17.50;99.90;;;;;;7291149;19;20213;-84
2023/09/07 05:35:50;;;;;;;13.43;7.00;;;17.40;99.90;;;;;;7295425;19;20221;-85
2023/09/07 05:38:16;;;;;;;15.80;6.53;;;17.30;99.90;;;;;;7297470;19;20197;-84
2023/09/07 05:40:44;;;;;;;11.57;6.30;;;17.40;99.90;;;;;;7287254;19;20195;-85
2023/09/07 05:43:11;;;;;;;12.30;6.90;;;17.60;99.90;;;;;;7283609;19;20546;-80
2023/09/07 05:45:41;;;;;;;10.87;6.07;;;18.40;99.90;;;;;;7285865;19;20286;-81
2023/09/07 05:48:09;;;;;;;12.47;6.43;;;19.10;99.90;;;;;;7286438;19;20189;-81
2023/09/07 05:50:36;;;;;;;12.50;6.00;;;20.10;99.90;;;;;;7286373;19;20551;-80
2023/09/07 05:53:03;;;;;;;12.90;5.70;;;21.20;99.90;;;;;;7285503;19;20190;-80
2023/09/07 05:55:30;;;;;;;11.80;5.53;;;22.10;99.90;;;;;;7306986;19;20184;-81
2023/09/07 05:57:57;;;;;;;11.77;5.60;;;22.80;99.90;;;;;;7286561;19;20188;-81
2023/09/07 06:00:25;;;;;;;11.60;5.90;;;23.50;99.90;;;;;;7286915;19;20244;-81
2023/09/07 06:02:51;;;;;;;9.43;5.37;;;23.80;99.90;;;;;;7285326;19;20201;-80
2023/09/07 06:05:18;;;;;;;9.47;5.00;;;24.30;99.90;;;;;;7285629;19;20191;-78
2023/09/07 06:07:45;;;;;;;9.17;5.33;;;24.50;99.90;;;;;;7285222;19;20195;-78
2023/09/07 06:10:17;;;;;;;10.37;5.50;;;24.60;99.90;;;;;;7284579;19;20188;-81
2023/09/07 06:12:44;;;;;;;11.50;5.27;;;24.80;99.90;;;;;;7285176;19;20193;-81
2023/09/07 06:15:10;;;;;;;11.32;5.97;;;25.10;99.90;;;;;;7285684;19;20276;-81
2023/09/07 06:17:36;;;;;;;12.35;5.65;;;24.60;99.90;;;;;;7286067;19;20712;-79
2023/09/07 06:20:03;;;;;;;12.20;5.10;;;23.90;99.90;;;;;;7284766;19;20246;-78
2023/09/07 06:22:29;;;;;;;10.40;5.43;;;23.50;99.90;;;;;;7307762;19;20192;-81
2023/09/07 06:24:55;;;;;;;13.50;5.87;;;23.10;99.90;;;;;;7284377;19;20193;-81
2023/09/07 06:27:23;;;;;;;10.67;6.17;;;22.90;99.90;;;;;;7286995;19;20190;-79
2023/09/07 06:29:49;;;;;;;11.53;6.13;;;22.60;99.90;;;;;;7283579;19;20221;-79
2023/09/07 06:32:15;;;;;;;13.83;6.33;;;22.40;99.90;;;;;;7286434;19;20314;-81
2023/09/07 06:34:41;;;;;;;11.30;5.77;;;22.10;99.90;;;;;;7285458;19;20189;-81
2023/09/07 06:37:07;;;;;;;13.80;6.20;;;21.70;99.90;;;;;;7283627;19;20203;-79
2023/09/07 06:39:34;;;;;;;15.07;6.47;;;21.40;99.90;;;;;;7285818;19;20684;-81
2023/09/07 06:42:00;;;;;;;12.03;6.20;;;21.40;99.90;;;;;;7305113;19;20192;-81
2023/09/07 06:44:34;;;;;;;16.07;6.37;;;21.50;99.90;;;;;;7264781;19;20196;-79
2023/09/07 06:47:01;;;;;;;15.90;5.90;;;22.90;99.90;;;;;;7302328;19;20197;-79
2023/09/07 06:49:29;;;;;;;13.23;5.90;;;25.20;99.90;;;;;;7306521;19;20670;-78
2023/09/07 06:51:56;;;;;;;12.73;5.30;;;27.40;99.90;;;;;;7284621;19;20204;-78
2023/09/07 06:54:22;;;;;;;12.57;5.05;;;29.40;99.90;;;;;;7283139;19;20200;-81
2023/09/07 06:56:48;;;;;;;11.73;5.03;;;31.00;99.90;;;;;;7283080;19;20268;-79
2023/09/07 06:59:14;;;;;;;11.30;5.30;;;32.20;99.90;;;;;;7283825;19;20252;-79
2023/09/07 07:01:40;;;;;;;9.55;5.13;;;33.00;99.90;;;;;;7283406;19;20201;-79
2023/09/07 07:04:07;;;;;;;12.52;5.28;;;34.00;99.90;;;;;;7283049;19;20632;-79
2023/09/07 07:06:33;;;;;;;11.27;5.13;;;34.50;99.90;;;;;;7283790;19;20217;-82
2023/09/07 07:08:59;;;;;;;10.02;4.55;;;35.20;99.90;;;;;;7305743;19;20220;-82
2023/09/07 07:11:27;;;;;;;20.95;5.05;;;35.90;99.90;;;;;;7282833;19;20248;-83
2023/09/07 07:13:53;;;;;;;19.50;5.10;;;36.60;97.80;;;;;;7282490;19;20259;-80
2023/09/07 07:16:19;;;;;;;21.98;5.05;;;37.40;94.60;;;;;;7283011;19;20521;-82
2023/09/07 07:18:45;;;;;;;16.23;4.95;;;38.10;92.20;;;;;;7283854;19;20223;-82
2023/09/07 07:21:12;;;;;;;17.50;5.10;;;38.60;90.10;;;;;;7283923;19;20187;-82
2023/09/07 07:23:38;;;;;;;15.30;5.60;;;39.30;84.60;;;;;;7281151;19;20209;-82
2023/09/07 07:26:05;;;;;;;17.77;5.40;;;40.00;81.20;;;;;;7283591;19;20181;-82
2023/09/07 07:28:31;;;;;;;14.75;4.78;;;40.50;78.90;;;;;;7300974;19;20190;-81
2023/09/07 07:30:57;;;;;;;15.00;5.00;;;40.80;75.40;;;;;;7298139;19;20181;-82
2023/09/07 07:33:23;;;;;;;14.93;4.70;;;41.40;71.70;;;;;;7282370;19;20666;-82
2023/09/07 07:35:51;;;;;;;13.88;4.38;;;41.60;69.00;;;;;;7279698;19;20193;-83
2023/09/07 07:38:16;;;;;;;14.07;4.97;;;41.90;67.40;;;;;;7284564;19;20189;-82
2023/09/07 07:40:43;;;;;;;10.60;5.68;;;42.20;66.40;;;;;;7281889;19;20193;-81
2023/09/07 07:43:10;;;;;;;9.15;4.55;;;42.50;64.70;;;;;;7285107;19;20241;-80
2023/09/07 07:45:38;;;;;;;7.88;4.10;;;42.50;61.40;;;;;;7285644;19;20181;-80
2023/09/07 07:48:07;;;;;;;16.63;4.40;;;42.40;62.10;;;;;;7283890;19;20548;-80
2023/09/07 07:50:40;;;;;;;8.77;4.18;;;42.30;60.40;;;;;;7281684;19;20188;-80
2023/09/07 07:53:07;;;;;;;9.00;4.43;;;42.60;61.00;;;;;;7280268;19;20192;-81
2023/09/07 07:55:38;;;;;;;7.65;3.67;;;43.20;60.00;;;;;;7280716;19;20185;-80
2023/09/07 07:58:08;;;;;;;6.35;3.88;;;43.80;58.10;;;;;;7281548;19;20692;-81
2023/09/07 08:00:38;;;;;;;7.35;3.90;;;44.00;57.00;;;;;;7281088;19;20185;-80
2023/09/07 08:03:06;;;;;;;7.65;3.80;;;44.50;56.40;;;;;;7280650;19;21099;-80
2023/09/07 08:05:34;;;;;;;9.63;4.18;;;44.90;56.80;;;;;;7280312;19;20551;-81
2023/09/07 08:08:01;;;;;;;7.38;3.72;;;45.20;55.00;;;;;;7302791;19;20185;-81
2023/09/07 08:10:27;;;;;;;6.68;3.22;;;45.40;53.90;;;;;;7279690;19;20659;-81
2023/09/07 08:12:57;;;;;;;6.03;3.30;;;45.20;52.90;;;;;;7281590;19;20193;-80
2023/09/07 08:15:24;;;;;;;6.07;3.20;;;44.70;54.60;;;;;;7278656;19;21123;-81
2023/09/07 08:17:51;;;;;;;8.10;3.75;;;44.20;52.50;;;;;;7280765;19;20194;-80
2023/09/07 08:20:17;;;;;;;6.65;3.20;;;44.10;52.30;;;;;;7278211;19;20581;-81
2023/09/07 08:22:44;;;;;;;7.38;3.28;;;43.90;52.70;;;;;;7279017;19;20214;-81
2023/09/07 08:25:14;;;;;;;5.50;3.22;;;43.90;52.30;;;;;;7286784;19;20554;-80
2023/09/07 08:27:45;;;;;;;7.35;3.42;;;42.40;52.40;;;;;;7288010;19;20209;-81
2023/09/07 08:30:17;;;;;;;4.93;3.33;;;42.20;52.90;;;;;;7286082;19;20192;-80
2023/09/07 08:32:44;;;;;;;6.95;3.47;;;42.00;53.30;;;;;;7288480;19;20210;-80
2023/09/07 08:35:13;;;;;;;4.43;2.90;;;41.90;53.00;;;;;;7288972;19;20192;-81
2023/09/07 08:37:41;;;;;;;7.47;3.75;;;42.30;53.00;;;;;;7285718;19;20185;-80
2023/09/07 08:40:08;;;;;;;6.25;3.30;;;42.30;52.40;;;;;;7287626;19;20225;-81
2023/09/07 08:42:39;;;;;;;7.15;3.40;;;41.50;53.60;;;;;;7285460;19;20191;-80
2023/09/07 08:45:07;;;;;;;6.97;3.33;;;41.20;54.20;;;;;;7285397;19;20208;-80
2023/09/07 08:47:37;;;;;;;4.35;2.83;;;41.10;54.10;;;;;;7287424;19;20722;-80
2023/09/07 08:50:08;;;;;;;6.75;3.17;;;41.40;54.00;;;;;;7285256;19;20193;-80
2023/09/07 08:52:37;;;;;;;9.02;3.85;;;41.10;53.90;;;;;;7285632;19;20660;-80
2023/09/07 08:55:06;;;;;;;7.32;3.40;;;40.30;55.20;;;;;;7288679;19;20196;-80
2023/09/07 08:57:32;;;;;;;7.90;3.28;;;39.10;55.50;;;;;;7295222;19;20546;-80
2023/09/07 08:59:58;;;;;;;5.60;3.60;;;38.70;56.40;;;;;;7309412;19;20177;-80
2023/09/07 09:02:24;;;;;;;4.78;3.20;;;38.40;55.70;;;;;;7286092;19;20196;-80
2023/09/07 09:04:52;;;;;;;11.13;3.35;;;37.90;56.80;;;;;;7284010;19;20196;-81
2023/09/07 09:07:18;;;;;;;9.90;3.28;;;39.30;56.90;;;;;;7287671;19;20189;-80
2023/09/07 09:09:44;;;;;;;6.38;3.70;;;39.90;54.60;;;;;;7284955;19;20537;-83
2023/09/07 09:12:13;;;;;;;8.95;3.78;;;39.10;56.40;;;;;;7284959;19;20192;-82
2023/09/07 09:14:44;;;;;;;5.35;3.17;;;38.60;56.00;;;;;;7285240;19;20188;-83
2023/09/07 09:17:14;;;;;;;9.30;3.75;;;38.30;56.80;;;;;;7287188;19;20241;-83
2023/09/07 09:19:43;;;;;;;8.80;4.10;;;38.30;57.00;;;;;;7287020;19;20189;-83
2023/09/07 09:22:11;;;;;;;6.10;3.60;;;38.70;57.80;;;;;;7288242;19;20213;-83
2023/09/07 09:24:37;;;;;;;6.85;3.33;;;37.40;57.60;;;;;;7284375;19;20585;-83
2023/09/07 09:27:04;;;;;;;6.25;3.78;;;35.60;59.90;;;;;;7285425;19;20256;-82
2023/09/07 09:29:33;;;;;;;6.43;3.63;;;34.00;62.80;;;;;;7307631;19;20212;-82
2023/09/07 09:32:04;;;;;;;7.78;3.35;;;32.40;67.30;;;;;;7286524;19;20556;-82
2023/09/07 09:34:35;;;;;;;10.43;3.78;;;31.20;70.30;;;;;;7286404;19;20200;-83
2023/09/07 09:37:03;;;;;;;8.05;3.83;;;30.70;73.50;;;;;;7286967;19;20208;-83
2023/09/07 09:39:29;;;;;;;8.93;4.25;;;30.40;75.80;;;;;;7285041;19;20251;-82
2023/09/07 09:41:55;;;;;;;9.20;3.88;;;30.00;75.90;;;;;;7285179;19;20687;-82
2023/09/07 09:44:25;;;;;;;8.68;3.70;;;29.90;79.90;;;;;;7285863;19;20218;-83
2023/09/07 09:46:54;;;;;;;9.23;4.00;;;30.10;78.60;;;;;;7286141;19;20181;-82
2023/09/07 09:49:21;;;;;;;6.60;3.30;;;31.10;76.90;;;;;;7285695;19;20556;-83
2023/09/07 09:51:50;;;;;;;7.05;3.50;;;33.00;73.60;;;;;;7285156;19;20286;-82
2023/09/07 09:54:18;;;;;;;10.30;3.90;;;33.90;70.50;;;;;;7284666;19;20201;-82
2023/09/07 09:56:44;;;;;;;6.88;3.33;;;35.50;68.10;;;;;;7284462;19;20192;-83
2023/09/07 09:59:11;;;;;;;8.18;3.63;;;36.30;66.10;;;;;;7285347;19;20219;-83
2023/09/07 10:01:44;;;;;;;6.90;3.35;;;36.20;63.50;;;;;;7285034;19;20203;-83
2023/09/07 10:04:15;;;;;;;6.35;3.30;;;37.10;62.80;;;;;;7284588;19;20189;-84
2023/09/07 10:06:53;;;;;;;7.55;3.53;;;37.40;63.00;;;;;;7286410;19;20214;-84
2023/09/07 10:09:19;;;;;;;6.63;3.38;;;38.20;61.50;;;;;;7285192;19;20539;-83
2023/09/07 10:11:54;;;;;;;7.22;3.38;;;39.00;60.10;;;;;;7283588;19;20226;-83
2023/09/07 10:14:20;;;;;;;8.43;3.63;;;38.20;58.90;;;;;;7284177;19;20680;-84
2023/09/07 10:16:52;;;;;;;6.82;3.35;;;38.10;59.80;;;;;;7284059;19;20197;-83
2023/09/07 10:19:22;;;;;;;8.63;3.70;;;38.20;60.60;;;;;;7285770;19;20267;-84
2023/09/07 10:21:49;;;;;;;5.63;3.08;;;37.70;59.50;;;;;;7283942;19;20259;-84
2023/09/07 10:24:36;;;;;;;7.28;3.50;;;37.70;59.90;;;;;;7283203;19;20188;-83
2023/09/07 10:27:10;;;;;;;6.47;3.28;;;38.60;59.80;;;;;;7279216;19;20213;-82
2023/09/07 10:29:42;;;;;;;8.02;3.13;;;39.00;59.20;;;;;;7284943;19;20200;-84
2023/09/07 10:32:10;;;;;;;8.35;3.25;;;39.10;58.20;;;;;;7284454;19;20278;-84
2023/09/07 10:34:39;;;;;;;7.53;3.13;;;39.90;57.80;;;;;;7284015;19;20263;-83
2023/09/07 10:37:06;;;;;;;8.35;3.25;;;40.60;57.20;;;;;;7283582;19;20289;-84
2023/09/07 10:39:32;;;;;;;6.35;3.03;;;40.60;56.20;;;;;;7292250;19;20196;-83
2023/09/07 10:41:58;;;;;;;6.35;3.55;;;40.20;56.00;;;;;;7306027;19;20193;-84
2023/09/07 10:44:28;;;;;;;8.70;3.60;;;40.60;56.30;;;;;;7282980;19;20248;-84
2023/09/07 10:46:54;;;;;;;7.38;3.50;;;40.60;56.10;;;;;;7281401;19;20197;-84
2023/09/07 10:49:20;;;;;;;5.00;3.15;;;41.30;55.90;;;;;;7284017;19;20195;-84
2023/09/07 10:51:47;;;;;;;9.15;3.78;;;42.20;54.50;;;;;;7283340;19;20200;-84
2023/09/07 10:54:22;;;;;;;8.15;3.72;;;42.50;55.40;;;;;;7283681;19;20196;-84
2023/09/07 10:56:49;;;;;;;8.93;3.65;;;42.20;54.70;;;;;;7283345;19;20627;-84
2023/09/07 10:59:16;;;;;;;9.65;3.88;;;41.50;55.10;;;;;;7283878;19;20200;-85
2023/09/07 11:01:45;;;;;;;7.05;4.10;;;40.70;55.50;;;;;;7283745;19;20200;-84
2023/09/07 11:04:12;;;;;;;8.98;3.47;;;40.30;56.60;;;;;;7283686;19;20192;-84
2023/09/07 11:06:41;;;;;;;7.57;3.42;;;41.00;57.20;;;;;;7283403;19;20181;-84
2023/09/07 11:09:10;;;;;;;10.15;3.90;;;41.50;57.00;;;;;;7284425;19;20671;-84
2023/09/07 11:11:36;;;;;;;9.68;3.67;;;41.50;54.40;;;;;;7281494;19;20184;-84
2023/09/07 11:14:04;;;;;;;6.40;3.50;;;40.90;55.00;;;;;;7294127;19;20213;-83
2023/09/07 11:16:30;;;;;;;9.77;3.70;;;40.90;56.10;;;;;;7305184;19;20206;-84
2023/09/07 11:18:56;;;;;;;9.88;3.42;;;40.60;56.00;;;;;;7283902;19;20529;-84
2023/09/07 11:21:23;;;;;;;5.10;3.08;;;40.20;56.70;;;;;;7282733;19;20209;-84
2023/09/07 11:23:50;;;;;;;6.63;3.40;;;39.40;57.80;;;;;;7281872;19;20216;-84
2023/09/07 11:26:19;;;;;;;8.00;3.78;;;39.00;57.90;;;;;;7282788;19;20547;-83
2023/09/07 11:28:47;;;;;;;6.55;3.35;;;38.00;58.40;;;;;;7282442;19;20193;-83
2023/09/07 11:31:13;;;;;;;6.10;3.47;;;38.10;59.50;;;;;;7281756;19;20185;-84
2023/09/07 11:33:41;;;;;;;6.03;3.60;;;37.60;60.00;;;;;;7283637;19;20226;-84
2023/09/07 11:36:07;;;;;;;8.10;3.67;;;37.50;59.90;;;;;;7281381;19;20647;-84
2023/09/07 11:38:37;;;;;;;6.95;3.50;;;37.80;61.50;;;;;;7288756;19;20185;-83
2023/09/07 11:41:03;;;;;;;7.28;3.67;;;37.50;59.20;;;;;;7283569;19;20185;-84
2023/09/07 11:43:29;;;;;;;6.72;3.50;;;37.50;60.30;;;;;;7304253;19;20280;-85
2023/09/07 11:45:55;;;;;;;6.97;3.28;;;37.60;59.60;;;;;;7281971;19;20193;-84
2023/09/07 11:48:21;;;;;;;8.45;3.30;;;37.10;59.80;;;;;;7283436;19;20202;-84
2023/09/07 11:50:47;;;;;;;8.88;3.40;;;36.60;60.40;;;;;;7280874;19;20192;-84
2023/09/07 11:53:13;;;;;;;6.03;3.42;;;36.50;62.60;;;;;;7283186;19;20200;-84
2023/09/07 11:55:41;;;;;;;6.72;3.53;;;36.60;61.80;;;;;;7282342;19;20181;-85
2023/09/07 11:58:06;;;;;;;5.65;2.95;;;36.70;60.80;;;;;;7282514;19;20204;-84
2023/09/07 12:00:32;;;;;;;7.88;3.05;;;37.20;62.70;;;;;;7300522;19;20536;-83
2023/09/07 12:02:59;;;;;;;7.50;3.13;;;37.80;60.10;;;;;;7309108;19;20193;-85
2023/09/07 12:05:25;;;;;;;5.85;2.85;;;38.20;59.00;;;;;;7289641;19;20193;-85
2023/09/07 12:07:50;;;;;;;7.18;3.10;;;38.40;58.20;;;;;;7288524;19;20209;-84
2023/09/07 12:10:16;;;;;;;7.28;3.17;;;38.70;58.80;;;;;;7287762;19;20197;-85
2023/09/07 12:12:43;;;;;;;7.30;3.28;;;38.70;58.00;;;;;;7290233;19;20200;-85
2023/09/07 12:15:13;;;;;;;9.65;3.40;;;38.00;58.80;;;;;;7285799;19;20193;-85
2023/09/07 12:17:39;;;;;;;5.78;2.95;;;38.10;60.30;;;;;;7286628;19;20264;-83
2023/09/07 12:20:09;;;;;;;8.43;3.25;;;37.80;58.80;;;;;;7290596;19;21012;-83
2023/09/07 12:22:40;;;;;;;5.95;3.40;;;37.60;59.40;;;;;;7289532;19;20189;-83
2023/09/07 12:25:07;;;;;;;5.13;2.97;;;37.20;60.00;;;;;;7287971;19;20200;-79
2023/09/07 12:27:34;;;;;;;7.72;3.40;;;37.20;59.70;;;;;;7299141;19;20181;-83
2023/09/07 12:30:06;;;;;;;12.98;3.20;;;36.90;59.40;;;;;;7311466;19;20933;-84
2023/09/07 12:32:32;;;;;;;8.40;3.50;;;36.40;60.10;;;;;;7286217;19;20185;-83
2023/09/07 12:34:58;;;;;;;5.90;3.13;;;36.30;62.10;;;;;;7304761;19;20713;-84
2023/09/07 12:37:24;;;;;;;8.48;3.70;;;36.60;61.40;;;;;;7288046;19;20199;-79
2023/09/07 12:39:51;;;;;;;6.57;2.90;;;36.20;59.90;;;;;;7288161;19;20531;-78
2023/09/07 12:42:17;;;;;;;5.53;3.10;;;35.50;60.70;;;;;;7287626;19;20281;-79